createdAt,value
2022-09-11T00:01:02.729Z,0
2022-09-11T00:06:28.732Z,0
2022-09-11T00:11:46.797Z,0
2022-09-11T00:17:04.279Z,0
2022-09-11T00:22:21.978Z,0
2022-09-11T00:27:39.212Z,0
2022-09-11T00:38:28.501Z,0
2022-09-11T00:43:45.879Z,0
2022-09-11T00:49:05.713Z,0
2022-09-11T00:59:40.133Z,0
2022-09-11T01:05:00.743Z,0
2022-09-11T01:10:17.889Z,0
2022-09-11T01:15:38.093Z,0
2022-09-11T01:21:02.467Z,0
2022-09-11T01:26:19.969Z,0
2022-09-11T01:31:37.368Z,0
2022-09-11T01:42:15.130Z,0
2022-09-11T01:47:32.663Z,0
2022-09-11T01:52:52.673Z,0
2022-09-11T01:58:09.955Z,0
2022-09-11T02:03:27.260Z,0
2022-09-11T02:08:44.384Z,0
2022-09-11T02:14:01.707Z,0
2022-09-11T02:19:19.046Z,0
2022-09-11T02:24:45.548Z,0
2022-09-11T02:30:03.023Z,0
2022-09-11T02:35:20.295Z,0
2022-09-11T02:40:37.428Z,0
2022-09-11T02:45:58.265Z,0
2022-09-11T02:51:15.584Z,0
2022-09-11T02:56:35.728Z,0
2022-09-11T03:01:52.917Z,0
2022-09-11T03:07:10.398Z,0
2022-09-11T03:12:27.609Z,0
2022-09-11T03:17:44.895Z,0
2022-09-11T03:23:05.229Z,0
2022-09-11T03:28:24.528Z,0
2022-09-11T03:33:41.910Z,0
2022-09-11T03:39:08.007Z,0
2022-09-11T03:44:25.218Z,0
2022-09-11T03:49:42.505Z,0
2022-09-11T03:54:59.776Z,0
2022-09-11T04:00:17.041Z,0
2022-09-11T04:10:54.470Z,0
2022-09-11T04:16:18.953Z,0
2022-09-11T04:21:36.476Z,0
2022-09-11T04:26:57.396Z,0.2
2022-09-11T04:32:17.684Z,0.9
2022-09-11T04:37:34.827Z,2
2022-09-11T04:42:52.102Z,0
2022-09-11T04:48:08.906Z,18.8
2022-09-11T04:53:25.929Z,45.4
2022-09-11T04:58:42.881Z,88.7
2022-09-11T05:09:19.544Z,162.5
2022-09-11T05:14:36.600Z,231.7
2022-09-11T05:19:53.916Z,251.7
2022-09-11T05:25:10.957Z,428.8
2022-09-11T05:30:27.907Z,750
2022-09-11T05:35:44.968Z,863.3
2022-09-11T05:41:10.917Z,907.5
2022-09-11T05:46:28.879Z,1369.6
2022-09-11T05:51:45.684Z,1362.1
2022-09-11T05:57:07.002Z,1251.7
2022-09-11T06:02:25.043Z,1362.1
2022-09-11T06:13:05.699Z,1497.5
2022-09-11T06:18:22.989Z,1950.8
2022-09-11T06:28:59.958Z,2555.8
2022-09-11T06:34:17.403Z,2405.4
2022-09-11T06:39:34.325Z,2895.8
2022-09-11T06:44:51.236Z,4057.1
2022-09-11T06:50:08.404Z,5203.8
2022-09-11T06:55:25.701Z,3780
2022-09-11T07:00:42.615Z,6622.9
2022-09-11T07:06:00.843Z,8197.9
2022-09-11T07:11:17.197Z,6138.3
2022-09-11T07:16:34.795Z,7515.4
2022-09-11T07:21:51.115Z,5412.5
2022-09-11T07:27:07.818Z,8719.2
2022-09-11T07:32:25.188Z,5659.2
2022-09-11T07:37:50.809Z,11713.3
2022-09-11T07:43:09.220Z,11422.9
2022-09-11T07:48:27.474Z,9660
2022-09-11T07:53:43.744Z,10870.8
2022-09-11T07:59:03.188Z,12029.2
2022-09-11T08:04:20.498Z,8556.2
2022-09-11T08:09:37.493Z,11281.7
2022-09-11T08:14:54.916Z,18268.7
2022-09-11T08:38:05.378Z,14879.6
2022-09-11T08:43:25.771Z,9830.8
2022-09-11T08:48:49.397Z,9536.7
2022-09-11T08:54:06.876Z,8647.5
2022-09-11T08:59:27.041Z,10848.3
2022-09-11T09:04:44.269Z,12287.1
2022-09-11T09:15:29.523Z,20368.3
2022-09-11T09:20:47.099Z,40508.3
2022-09-11T09:26:06.678Z,40134.2
2022-09-11T09:31:24.392Z,20835
2022-09-11T09:36:41.712Z,33614.2
2022-09-11T09:54:00.302Z,18390
2022-09-11T09:59:17.434Z,15493.3
2022-09-11T10:05:05.854Z,13603.3
2022-09-11T10:15:40.178Z,16311.7
2022-09-11T10:21:14.690Z,16298.7
2022-09-11T10:54:31.093Z,12470.4
2022-09-11T10:59:46.062Z,10748.3
2022-09-11T11:05:12.810Z,13547.9
2022-09-11T11:10:28.423Z,9443.3
2022-09-11T11:15:45.037Z,19464.2
2022-09-11T11:33:55.757Z,9539.6
2022-09-11T11:39:13.800Z,11055.4
2022-09-11T12:06:32.423Z,10928.3
2022-09-11T12:11:48.095Z,15590
2022-09-11T12:28:51.529Z,13907.5
2022-09-11T13:09:13.772Z,7935.8
2022-09-11T13:14:32.018Z,7564.6
2022-09-11T14:11:16.681Z,16093.7
2022-09-11T14:56:05.344Z,3680
2022-09-11T15:01:21.162Z,3459.6
2022-09-11T15:06:37.599Z,3416.3
2022-09-11T15:12:04.166Z,3350
2022-09-11T15:17:20.800Z,3162.9
2022-09-11T15:22:37.450Z,2984.2
2022-09-11T15:27:54.249Z,3051.7
2022-09-11T15:33:12.891Z,3007.1
2022-09-11T15:38:29.657Z,2999.6
2022-09-11T15:43:46.514Z,2877.5
2022-09-11T15:49:03.128Z,2774.6
2022-09-11T15:54:20.480Z,2685
2022-09-11T15:59:37.324Z,2741.3
2022-09-11T16:04:54.315Z,2697.9
2022-09-11T16:10:11.206Z,2777.9
2022-09-11T16:15:28.101Z,2764.2
2022-09-11T16:20:44.931Z,2592.9
2022-09-11T16:26:01.753Z,2379.6
2022-09-11T16:31:18.857Z,2283.8
2022-09-11T16:36:35.659Z,2222.9
2022-09-11T16:41:52.531Z,2045.4
2022-09-11T16:47:09.310Z,1930.4
2022-09-11T16:52:28.477Z,1830.4
2022-09-11T16:57:54.567Z,1694.6
2022-09-11T17:03:11.598Z,1537.9
2022-09-11T17:08:28.317Z,1457.1
2022-09-11T17:13:45.179Z,1270.4
2022-09-11T17:19:02.054Z,1180.4
2022-09-11T17:24:18.882Z,1024.2
2022-09-11T17:29:53.396Z,892.5
2022-09-11T17:35:10.406Z,724.2
2022-09-11T17:40:30.111Z,598.7
2022-09-11T17:45:47.126Z,456.2
2022-09-11T17:51:03.919Z,314.2
2022-09-11T17:56:20.860Z,192.1
2022-09-11T18:01:37.389Z,106.7
2022-09-11T18:06:54.225Z,53.7
2022-09-11T18:12:11.024Z,23.7
2022-09-11T18:17:28.364Z,10
2022-09-11T18:22:45.761Z,3.7
2022-09-11T18:33:20.008Z,0.3
2022-09-11T18:38:37.510Z,0
2022-09-11T18:44:03.951Z,0
2022-09-11T18:49:21.904Z,0
2022-09-11T18:54:39.231Z,0
2022-09-11T18:59:56.855Z,0
2022-09-11T19:05:14.048Z,0
2022-09-11T19:10:31.358Z,0
2022-09-11T19:15:48.714Z,0
2022-09-11T19:21:06.190Z,0
2022-09-11T19:26:23.437Z,0
2022-09-11T19:31:41.081Z,0
2022-09-11T19:37:00.205Z,0
2022-09-11T19:42:17.542Z,0
2022-09-11T19:47:34.739Z,0
2022-09-11T19:52:52.009Z,0
2022-09-11T19:58:09.307Z,0
2022-09-11T20:03:26.539Z,0
2022-09-11T20:08:43.707Z,0
2022-09-11T20:14:01.120Z,0
2022-09-11T20:19:18.381Z,0
2022-09-11T20:24:35.689Z,0
2022-09-11T20:29:53.054Z,0
2022-09-11T20:35:10.518Z,0
2022-09-11T20:40:27.653Z,0
2022-09-11T20:45:45.298Z,0
2022-09-11T20:51:05.231Z,0
2022-09-11T20:56:22.454Z,0
2022-09-11T21:01:39.861Z,0
2022-09-11T21:07:00.549Z,0
2022-09-11T21:12:17.885Z,0
2022-09-11T21:17:35.179Z,0
2022-09-11T21:22:55.456Z,0
2022-09-11T21:28:12.792Z,0
2022-09-11T21:33:30.258Z,0
2022-09-11T21:38:47.787Z,0
2022-09-11T21:44:05.115Z,0
2022-09-11T21:49:24.075Z,0
2022-09-11T21:54:41.430Z,0
2022-09-11T22:00:00.807Z,0
2022-09-11T22:05:18.539Z,0
2022-09-11T22:10:35.781Z,0
2022-09-11T22:15:52.907Z,0
2022-09-11T22:21:10.459Z,0
2022-09-11T22:26:27.783Z,0
2022-09-11T22:31:45.260Z,0
2022-09-11T22:37:02.643Z,0
2022-09-11T22:42:19.829Z,0
2022-09-11T22:47:37.031Z,0
2022-09-11T22:52:54.694Z,0
2022-09-11T22:58:14.629Z,0
2022-09-11T23:03:31.928Z,0
2022-09-11T23:08:49.327Z,0
2022-09-11T23:14:10.561Z,0
2022-09-11T23:19:30.753Z,0
2022-09-11T23:24:48.565Z,0
2022-09-11T23:30:05.871Z,0
2022-09-11T23:35:30.670Z,0
2022-09-11T23:40:50.206Z,0
2022-09-11T23:46:07.548Z,0
2022-09-11T23:51:24.894Z,0
2022-09-11T23:56:42.080Z,0
